Blackwater, Queensland

10:09 PM AEST on February 13, 2016 (GMT +1000)
Emerald | | Change Station
CLOSE
Current Station
Airport
Location: Emerald Airport,
Elevation: 623 ft
Nearby Weather Stations

Elev 623 ft 23.57 °S, 148.18 °E | Updated 1 hour ago

Clear
Clear
77 °F
Feels Like 77 °F
N
6
Wind Variable Wind from ESE

Today
High -- | Low -- °F
--% Chance of Precip.
Yesterday
High -- | Low -- °F
Precip. -- in
Pressure 29.80 in
Visibility 6.2 miles
Clouds
Dew Point 59 °F
Humidity 54%
Rainfall 0.00 in
Snow Depth Not available.
5:50 AM 6:46 PM
Waxing Crescent, 30% visible
METAR YEML 131100Z AUTO 12005KT 9999 // NCD 25/15 Q1009
Pressure 29.80 in
Visibility 6.2 miles
Clouds
Dew Point 59 °F
Humidity 54%
Rainfall 0.00 in
Snow Depth Not available.
5:50 AM 6:46 PM
Waxing Crescent, 30% visible
METAR YEML 131100Z AUTO 12005KT 9999 // NCD 25/15 Q1009

10-Day Weather Forecast

Almanac

Astronomy

Feb. 13, 2016 Rise Set
Actual Time
Civil Twilight
Nautical Twilight
Astronomical Twilight
Moon
Length of Visible Light
Length of Day
Tomorrow will be .
, % of the Moon is Illuminated

Today's Extremes

Country Highs Country Lows

Community

WunderPhotos

Upload Photos

1,892,541 photos uploaded!

WunderBlog® & News

Nearby

Air Quality

  Air Quality AQ Index Pollutant
Not available.

Snow Depth

Station Depth Elevation

Earthquake Activity

City Distance Mag. Time & Date
Minimum magnitude displayed is 2.5.

Coastal Water Temperatures

Place Temperature

Stations

Nearby Weather Stations

Station Location Temp. Windchill Dew Point Humidity Wind Precip. Elev Updated Type